Time;durP1;ratioP1;P1;durP2;ratioP2;P2;SDS_P1;SDS_P2;PMS_P1;PMS_P2;Temp;Humidity;BMP_temperature;BMP_pressure;BME280_temperature;BME280_humidity;BME280_pressure;Samples;Min_cycle;Max_cycle;Signal;HPM_P1;HPM_P2
2022/05/12 19:07:39;;;;;;;10.20;5.95;;;;;;;18.26;49.74;100719.32;5357514;54;46241;-77
2022/05/12 19:12:47;;;;;;;14.13;6.22;;;;;;;18.02;49.54;100729.13;5009199;58;1137095;-75
2022/05/12 19:18:03;;;;;;;14.63;6.53;;;;;;;17.87;49.89;100728.37;5164913;57;1141004;-75
2022/05/12 19:23:14;;;;;;;20.62;10.63;;;;;;;17.75;50.38;100734.17;5087796;57;1141223;-75
2022/05/12 19:28:22;;;;;;;19.60;7.55;;;;;;;17.58;51.07;100737.23;5080597;57;1143340;-75
2022/05/12 19:33:28;;;;;;;21.70;8.05;;;;;;;17.51;51.61;100740.22;5105205;57;1141112;-74
2022/05/12 19:38:35;;;;;;;11.37;6.37;;;;;;;17.49;52.04;100740.38;5098892;57;1141175;-76
2022/05/12 19:43:42;;;;;;;16.57;9.30;;;;;;;17.45;52.51;100740.84;5089749;57;1141057;-76
2022/05/12 19:48:49;;;;;;;89.80;30.33;;;;;;;17.41;53.20;100736.33;5120501;57;1141164;-74
2022/05/12 19:53:57;;;;;;;19.53;8.13;;;;;;;17.34;53.60;100734.42;5121794;57;1143264;-73
2022/05/12 19:59:04;;;;;;;16.20;6.40;;;;;;;17.27;54.03;100738.20;5158873;57;1141223;-74
2022/05/12 20:04:10;;;;;;;16.33;3.43;;;;;;;17.15;54.23;100744.81;5176082;56;1141136;-73
2022/05/12 20:09:17;;;;;;;34.83;14.13;;;;;;;17.04;54.78;100743.23;5148682;57;1141148;-74
2022/05/12 20:14:24;;;;;;;15.97;7.30;;;;;;;17.00;55.42;100736.52;5129188;57;1143277;-74
2022/05/12 20:19:33;;;;;;;6.67;4.57;;;;;;;16.89;55.73;100731.42;5127808;57;1141391;-75
2022/05/12 20:24:40;;;;;;;5.70;3.47;;;;;;;16.78;56.00;100740.52;5127607;57;1139024;-73
2022/05/12 20:29:46;;;;;;;8.40;3.04;;;;;;;16.74;56.22;100740.98;5127859;57;1139005;-74
2022/05/12 20:34:52;;;;;;;8.00;2.30;;;;;;;16.66;56.46;100743.55;5127775;57;1139047;-70
2022/05/12 20:39:59;;;;;;;7.60;3.20;;;;;;;16.50;56.44;100742.87;5128100;57;1139019;-70
2022/05/12 20:45:07;;;;;;;8.87;3.00;;;;;;;16.30;56.51;100758.69;5127825;57;1139061;-72
2022/05/12 20:50:13;;;;;;;7.93;4.63;;;;;;;16.21;57.23;100757.74;5127885;57;1139150;-72
2022/05/12 20:55:19;;;;;;;12.50;4.60;;;;;;;16.22;57.68;100762.09;5127767;57;1138952;-69
2022/05/12 21:00:25;;;;;;;7.90;3.37;;;;;;;16.18;57.79;100762.07;5044336;58;1141209;-70
2022/05/12 21:05:31;;;;;;;14.80;8.77;;;;;;;16.11;57.87;100763.14;5066571;57;1138996;-72
2022/05/12 21:10:37;;;;;;;7.70;6.57;;;;;;;16.02;57.99;100761.38;5127908;57;1139300;-69
2022/05/12 21:15:43;;;;;;;11.57;3.23;;;;;;;15.99;58.27;100761.67;5127866;57;1137235;-73
2022/05/12 21:20:51;;;;;;;14.37;3.50;;;;;;;15.95;58.67;100766.11;5127903;57;1139119;-71
2022/05/12 21:25:57;;;;;;;9.83;2.80;;;;;;;15.89;58.69;100762.72;5190041;56;1139342;-73
2022/05/12 21:31:03;;;;;;;6.10;3.27;;;;;;;15.78;58.81;100770.39;5106227;57;1137172;-71
2022/05/12 21:36:10;;;;;;;9.24;3.44;;;;;;;15.68;58.73;100769.10;5122763;57;1136910;-73
2022/05/12 21:41:17;;;;;;;42.20;10.47;;;;;;;15.53;59.01;100761.68;5127824;57;1136951;-73
2022/05/12 21:46:23;;;;;;;29.33;7.83;;;;;;;15.44;59.45;100757.55;5084634;57;1141277;-74
2022/05/12 21:51:29;;;;;;;41.60;11.67;;;;;;;15.37;59.83;100758.28;5127751;56;1139103;-68
2022/05/12 21:56:35;;;;;;;40.43;19.23;;;;;;;15.25;59.98;100749.63;5202524;56;1141132;-71
2022/05/12 22:01:47;;;;;;;35.80;15.53;;;;;;;15.12;60.01;100753.89;5192107;56;1141097;-68
2022/05/12 22:06:59;;;;;;;41.33;17.97;;;;;;;15.08;60.26;100743.69;5057342;58;1141098;-70
2022/05/12 22:12:17;;;;;;;32.70;16.57;;;;;;;15.00;60.38;100743.05;4949348;59;1141378;-69
2022/05/12 22:17:32;;;;;;;30.73;14.57;;;;;;;14.97;60.61;100750.51;5005377;58;1139211;-71
2022/05/12 22:22:38;;;;;;;35.23;18.83;;;;;;;14.92;60.65;100754.08;5045453;58;1143489;-70
2022/05/12 22:27:44;;;;;;;42.50;29.45;;;;;;;14.90;60.77;100757.36;5044832;58;1143258;-74
2022/05/12 22:32:49;;;;;;;36.17;18.90;;;;;;;14.70;60.82;100754.70;5049911;57;1143235;-75
2022/05/12 22:37:55;;;;;;;24.53;7.77;;;;;;;14.69;61.62;100753.50;5041491;58;1143198;-75
2022/05/12 22:43:02;;;;;;;8.13;4.93;;;;;;;14.67;61.74;100758.12;5136456;57;1141180;-74
2022/05/12 22:48:08;;;;;;;7.80;3.27;;;;;;;14.67;62.02;100764.28;5041186;58;1139207;-75
2022/05/12 22:53:14;;;;;;;3.00;2.70;;;;;;;14.64;61.95;100758.42;5137570;57;1138929;-75
2022/05/12 22:58:20;;;;;;;6.22;3.85;;;;;;;14.61;61.96;100761.36;5136828;57;1139241;-75
2022/05/12 23:03:26;;;;;;;10.77;4.33;;;;;;;14.45;61.95;100762.39;5136450;57;1138963;-74
2022/05/12 23:08:32;;;;;;;7.20;4.23;;;;;;;14.36;62.08;100764.03;5101731;57;1141311;-74
2022/05/12 23:13:41;;;;;;;6.17;3.60;;;;;;;14.30;62.22;100765.90;5074592;57;1139081;-74
2022/05/12 23:24:11;;;;;;;8.30;3.57;;;;;;;14.43;62.92;100750.55;5150201;56;1139177;-75
2022/05/12 23:29:18;;;;;;;4.60;3.03;;;;;;;14.50;62.65;100764.16;5151090;56;1139164;-73
2022/05/12 23:34:24;;;;;;;6.77;2.93;;;;;;;14.50;62.16;100760.16;5151062;56;1139477;-73
2022/05/12 23:39:29;;;;;;;8.07;2.20;;;;;;;14.43;61.69;100756.71;5150780;56;1139057;-75
2022/05/12 23:44:35;;;;;;;5.77;2.50;;;;;;;14.32;61.28;100754.15;5150905;56;1139073;-76
2022/05/12 23:49:41;;;;;;;9.00;3.70;;;;;;;14.24;61.26;100759.30;5150466;56;1139063;-75
2022/05/12 23:54:47;;;;;;;4.93;2.67;;;;;;;14.04;61.18;100757.58;5151094;56;1139033;-73
2022/05/12 23:59:53;;;;;;;3.80;2.63;;;;;;;13.86;61.47;100751.22;5150505;56;1139199;-75
